createdAt,value
2022-10-15T00:00:04.398Z,9.08
2022-10-15T00:01:13.632Z,9.10
2022-10-15T00:02:18.135Z,9.07
2022-10-15T00:03:19.953Z,9.06
2022-10-15T00:04:24.404Z,9.08
2022-10-15T00:05:26.258Z,9.09
2022-10-15T00:06:30.695Z,9.09
2022-10-15T00:07:32.549Z,9.07
2022-10-15T00:08:37.176Z,9.05
2022-10-15T00:09:39.051Z,9.03
2022-10-15T00:10:43.535Z,9.01
2022-10-15T00:11:48.009Z,8.99
2022-10-15T00:12:49.998Z,8.98
2022-10-15T00:13:57.755Z,8.97
2022-10-15T00:14:59.615Z,8.97
2022-10-15T00:16:04.114Z,8.95
2022-10-15T00:17:05.929Z,8.93
2022-10-15T00:18:10.398Z,8.91
2022-10-15T00:19:12.802Z,8.90
2022-10-15T00:20:17.238Z,8.89
2022-10-15T00:21:20.253Z,8.86
2022-10-15T00:22:24.992Z,8.85
2022-10-15T00:23:27.158Z,8.84
2022-10-15T00:24:31.611Z,8.86
2022-10-15T00:25:33.544Z,8.83
2022-10-15T00:26:38.189Z,8.86
2022-10-15T00:27:40.161Z,8.87
2022-10-15T00:28:44.839Z,8.90
2022-10-15T00:29:46.666Z,8.89
2022-10-15T00:30:51.169Z,8.90
2022-10-15T00:31:53.077Z,8.90
2022-10-15T00:32:57.483Z,8.90
2022-10-15T00:34:00.183Z,8.91
2022-10-15T00:35:04.706Z,8.90
2022-10-15T00:36:07.897Z,8.90
2022-10-15T00:37:12.407Z,8.92
2022-10-15T00:38:14.242Z,8.89
2022-10-15T00:39:18.748Z,8.89
2022-10-15T00:40:21.513Z,8.92
2022-10-15T00:41:31.073Z,8.91
2022-10-15T00:42:32.944Z,8.89
2022-10-15T00:43:38.604Z,8.91
2022-10-15T00:44:47.547Z,8.91
2022-10-15T00:45:51.943Z,8.90
2022-10-15T00:46:55.018Z,8.90
2022-10-15T00:47:59.553Z,8.90
2022-10-15T00:49:08.107Z,8.90
2022-10-15T00:50:15.127Z,8.91
2022-10-15T00:51:17.865Z,8.91
2022-10-15T00:52:23.803Z,8.90
2022-10-15T00:53:25.806Z,8.91
2022-10-15T00:54:30.578Z,8.89
2022-10-15T00:55:32.398Z,8.87
2022-10-15T00:56:36.837Z,8.87
2022-10-15T00:57:38.685Z,8.87
2022-10-15T00:58:43.360Z,8.87
2022-10-15T00:59:48.064Z,8.86
2022-10-15T01:00:52.817Z,8.87
2022-10-15T01:01:54.878Z,8.87
2022-10-15T01:02:59.306Z,8.86
2022-10-15T01:04:01.130Z,8.86
2022-10-15T01:05:05.741Z,8.86
2022-10-15T01:06:07.602Z,8.85
2022-10-15T01:07:12.027Z,8.84
2022-10-15T01:08:13.949Z,8.84
2022-10-15T01:09:18.393Z,8.83
2022-10-15T01:10:20.886Z,8.81
2022-10-15T01:11:46.881Z,8.79
2022-10-15T01:12:54.466Z,8.77
2022-10-15T01:14:08.175Z,8.76
2022-10-15T01:15:13.930Z,8.76
2022-10-15T01:16:24.016Z,8.76
2022-10-15T01:17:27.909Z,8.74
2022-10-15T01:18:36.146Z,8.77
2022-10-15T01:19:45.471Z,8.76
2022-10-15T01:20:52.270Z,8.79
2022-10-15T01:22:13.466Z,8.79
2022-10-15T01:23:15.341Z,8.79
2022-10-15T01:24:36.609Z,8.80
2022-10-15T01:25:41.298Z,8.79
2022-10-15T01:26:54.765Z,8.77
2022-10-15T01:28:05.318Z,8.76
2022-10-15T01:29:07.123Z,8.74
2022-10-15T01:30:31.221Z,8.73
2022-10-15T01:31:42.056Z,8.69
2022-10-15T01:32:46.583Z,8.67
2022-10-15T01:34:04.997Z,8.66
2022-10-15T01:35:23.515Z,8.66
2022-10-15T01:36:31.364Z,8.65
2022-10-15T01:37:33.148Z,8.63
2022-10-15T01:38:46.561Z,8.61
2022-10-15T01:40:04.397Z,8.60
2022-10-15T01:41:13.636Z,8.58
2022-10-15T01:42:19.535Z,8.56
2022-10-15T01:43:25.646Z,8.56
2022-10-15T01:45:15.170Z,8.55
2022-10-15T01:46:43.437Z,8.53
2022-10-15T01:47:57.635Z,8.51
2022-10-15T01:48:59.540Z,8.51
2022-10-15T01:50:04.045Z,8.48
2022-10-15T01:51:07.070Z,8.48
2022-10-15T01:52:12.390Z,8.45
2022-10-15T01:53:18.447Z,8.45
2022-10-15T01:54:22.870Z,8.43
2022-10-15T01:55:26.664Z,8.43
2022-10-15T01:56:31.441Z,8.41
2022-10-15T01:57:33.614Z,8.39
2022-10-15T01:58:40.840Z,8.38
2022-10-15T01:59:43.199Z,8.38
2022-10-15T02:00:47.677Z,8.39
2022-10-15T02:01:49.542Z,8.41
2022-10-15T02:02:54.030Z,8.42
2022-10-15T02:03:55.858Z,8.42
2022-10-15T02:05:00.274Z,8.44
2022-10-15T02:06:06.848Z,8.45
2022-10-15T02:07:30.303Z,8.44
2022-10-15T02:08:39.333Z,8.44
2022-10-15T02:10:04.018Z,8.43
2022-10-15T02:11:17.852Z,8.44
2022-10-15T02:12:22.611Z,8.45
2022-10-15T02:13:43.779Z,8.46
2022-10-15T02:15:01.807Z,8.45
2022-10-15T02:16:13.241Z,8.45
2022-10-15T02:17:17.954Z,8.42
2022-10-15T02:18:23.098Z,8.45
2022-10-15T02:19:48.323Z,8.44
2022-10-15T02:21:03.938Z,8.43
2022-10-15T02:22:14.085Z,8.43
2022-10-15T02:23:17.962Z,8.44
2022-10-15T02:24:23.302Z,8.43
2022-10-15T02:25:25.124Z,8.45
2022-10-15T02:26:30.829Z,8.43
2022-10-15T02:27:33.377Z,8.43
2022-10-15T02:28:37.836Z,8.43
2022-10-15T02:29:39.697Z,8.44
2022-10-15T02:30:44.871Z,8.44
2022-10-15T02:31:47.687Z,8.44
2022-10-15T02:32:54.036Z,8.43
2022-10-15T02:33:57.275Z,8.42
2022-10-15T02:35:01.775Z,8.41
2022-10-15T02:36:06.350Z,8.40
2022-10-15T02:37:09.174Z,8.42
2022-10-15T02:39:38.395Z,8.42
2022-10-15T02:40:40.303Z,8.42
2022-10-15T02:41:44.742Z,8.44
2022-10-15T02:42:49.666Z,8.43
2022-10-15T02:43:54.265Z,8.41
2022-10-15T02:44:56.664Z,8.43
2022-10-15T02:46:01.149Z,8.43
2022-10-15T02:47:02.995Z,8.43
2022-10-15T02:48:07.926Z,8.37
2022-10-15T02:49:10.274Z,8.43
2022-10-15T02:50:14.803Z,8.44
2022-10-15T02:51:16.635Z,8.47
2022-10-15T02:52:21.335Z,8.49
2022-10-15T02:53:25.954Z,8.51
2022-10-15T02:54:27.817Z,8.53
2022-10-15T02:55:32.371Z,8.54
2022-10-15T02:56:34.679Z,8.56
2022-10-15T02:57:39.455Z,8.54
2022-10-15T02:58:42.585Z,8.56
2022-10-15T02:59:47.073Z,8.55
2022-10-15T03:00:49.311Z,8.55
2022-10-15T03:01:53.814Z,8.55
2022-10-15T03:02:56.469Z,8.56
2022-10-15T03:04:01.380Z,8.57
2022-10-15T03:06:36.654Z,8.61
2022-10-15T03:07:38.536Z,8.64
2022-10-15T03:08:43.073Z,8.67
2022-10-15T03:09:45.203Z,8.70
2022-10-15T03:10:51.047Z,8.71
2022-10-15T03:11:53.047Z,8.74
2022-10-15T03:12:58.575Z,8.76
2022-10-15T03:14:00.439Z,8.78
2022-10-15T03:15:05.471Z,8.79
2022-10-15T03:16:08.075Z,8.81
2022-10-15T03:17:13.561Z,8.82
2022-10-15T03:18:15.649Z,8.85
2022-10-15T03:19:20.702Z,8.87
2022-10-15T03:20:23.055Z,8.90
2022-10-15T03:21:30.909Z,8.91
2022-10-15T03:22:38.855Z,8.94
2022-10-15T03:23:43.278Z,8.97
2022-10-15T03:24:51.631Z,9.00
2022-10-15T03:26:01.242Z,9.03
2022-10-15T03:27:03.637Z,9.07
2022-10-15T03:28:08.160Z,9.11
2022-10-15T03:29:16.457Z,9.12
2022-10-15T03:30:24.810Z,9.18
2022-10-15T03:31:29.602Z,9.20
2022-10-15T03:32:36.203Z,9.24
2022-10-15T03:33:41.910Z,9.27
2022-10-15T03:34:43.767Z,9.32
2022-10-15T03:35:52.036Z,9.36
2022-10-15T03:36:56.465Z,9.41
2022-10-15T03:37:58.617Z,9.45
2022-10-15T03:39:03.263Z,9.49
2022-10-15T03:40:07.398Z,9.51
2022-10-15T03:41:15.009Z,9.53
2022-10-15T03:42:17.891Z,9.55
2022-10-15T03:43:22.781Z,9.58
2022-10-15T03:44:24.582Z,9.60
2022-10-15T03:45:40.225Z,9.61
2022-10-15T03:46:54.577Z,9.64
2022-10-15T03:47:59.367Z,9.68
2022-10-15T03:49:07.578Z,9.69
2022-10-15T03:50:10.870Z,9.71
2022-10-15T03:51:18.170Z,9.72
2022-10-15T03:52:27.416Z,9.74
2022-10-15T03:53:32.621Z,9.73
2022-10-15T03:54:34.735Z,9.73
2022-10-15T03:55:40.137Z,9.79
2022-10-15T03:56:42.975Z,9.81
2022-10-15T03:58:05.356Z,9.82
2022-10-15T03:59:07.639Z,9.83
2022-10-15T04:00:12.289Z,9.85
2022-10-15T04:01:15.002Z,9.89
2022-10-15T04:02:19.992Z,9.91
2022-10-15T04:03:24.335Z,9.93
2022-10-15T04:04:28.849Z,9.94
2022-10-15T04:05:30.751Z,9.97
2022-10-15T04:06:41.449Z,9.99
2022-10-15T04:07:47.689Z,10.01
2022-10-15T04:08:56.892Z,10.04
2022-10-15T04:10:00.522Z,10.06
2022-10-15T04:11:12.051Z,10.11
2022-10-15T04:12:14.111Z,10.14
2022-10-15T04:13:18.584Z,10.18
2022-10-15T04:14:20.555Z,10.20
2022-10-15T04:15:24.998Z,10.21
2022-10-15T04:16:30.798Z,10.23
2022-10-15T04:17:35.295Z,10.24
2022-10-15T04:18:37.375Z,10.25
2022-10-15T04:19:42.409Z,10.26
2022-10-15T04:20:44.279Z,10.28
2022-10-15T04:21:51.330Z,10.27
2022-10-15T04:23:05.022Z,10.31
2022-10-15T04:24:09.679Z,10.31
2022-10-15T04:25:15.136Z,10.33
2022-10-15T04:26:20.161Z,10.33
2022-10-15T04:27:22.136Z,10.34
2022-10-15T04:28:27.114Z,10.38
2022-10-15T04:29:29.071Z,10.40
2022-10-15T04:30:43.289Z,10.42
2022-10-15T04:31:47.786Z,10.43
2022-10-15T04:32:54.424Z,10.44
2022-10-15T04:33:56.272Z,10.46
2022-10-15T04:35:00.857Z,10.49
2022-10-15T04:36:21.676Z,10.52
2022-10-15T04:37:37.358Z,10.54
2022-10-15T04:38:41.911Z,10.56
2022-10-15T04:39:43.735Z,10.58
2022-10-15T04:40:50.993Z,10.61
2022-10-15T04:41:52.811Z,10.63
2022-10-15T04:43:04.166Z,10.65
2022-10-15T04:44:06.077Z,10.66
2022-10-15T04:45:11.268Z,10.67
2022-10-15T04:46:13.808Z,10.70
2022-10-15T04:47:18.305Z,10.71
2022-10-15T04:48:26.011Z,10.71
2022-10-15T04:49:30.437Z,10.73
2022-10-15T04:50:32.386Z,10.73
2022-10-15T04:51:56.368Z,10.76
2022-10-15T04:53:03.823Z,10.76
2022-10-15T04:54:11.955Z,10.76
2022-10-15T04:55:31.350Z,10.76
2022-10-15T04:56:35.421Z,10.76
2022-10-15T04:57:40.052Z,10.76
2022-10-15T04:58:42.841Z,10.76
2022-10-15T04:59:47.351Z,10.75
2022-10-15T05:01:06.505Z,10.77
2022-10-15T05:02:19.369Z,10.75
2022-10-15T05:03:28.693Z,10.76
2022-10-15T05:04:37.930Z,10.77
2022-10-15T05:05:42.571Z,10.77
2022-10-15T05:06:47.332Z,10.79
2022-10-15T05:07:53.151Z,10.81
2022-10-15T05:08:57.636Z,10.81
2022-10-15T05:10:03.062Z,10.82
2022-10-15T05:11:08.384Z,10.83
2022-10-15T05:12:10.336Z,10.84
2022-10-15T05:13:14.756Z,10.85
2022-10-15T05:14:19.742Z,10.86
2022-10-15T05:15:37.458Z,10.88
2022-10-15T05:16:44.680Z,10.89
2022-10-15T05:17:47.377Z,10.90
2022-10-15T05:18:53.396Z,10.86
2022-10-15T05:19:55.220Z,10.87
2022-10-15T05:21:04.622Z,10.87
2022-10-15T05:22:07.646Z,10.86
2022-10-15T05:23:17.730Z,10.87
2022-10-15T05:24:30.569Z,10.86
2022-10-15T05:25:37.473Z,10.85
2022-10-15T05:26:41.973Z,10.86
2022-10-15T05:27:44.565Z,10.86
2022-10-15T05:28:49.345Z,10.85
2022-10-15T05:29:59.499Z,10.86
2022-10-15T05:31:17.700Z,10.86
2022-10-15T05:33:27.645Z,10.90
2022-10-15T05:34:32.162Z,10.93
2022-10-15T05:35:40.559Z,10.99
2022-10-15T05:36:44.989Z,11.04
2022-10-15T05:37:46.847Z,11.10
2022-10-15T05:38:56.062Z,11.08
2022-10-15T05:39:57.928Z,11.24
2022-10-15T05:41:02.995Z,11.31
2022-10-15T05:42:07.635Z,11.36
2022-10-15T05:43:24.015Z,11.43
2022-10-15T05:44:28.474Z,11.47
2022-10-15T05:45:30.342Z,11.54
2022-10-15T05:46:40.562Z,11.57
2022-10-15T05:47:42.409Z,11.60
2022-10-15T05:48:53.169Z,11.63
2022-10-15T05:49:55.138Z,11.67
2022-10-15T05:51:09.268Z,11.69
2022-10-15T05:52:11.139Z,11.70
2022-10-15T05:53:35.522Z,11.73
2022-10-15T05:54:42.116Z,11.78
2022-10-15T05:55:46.506Z,11.81
2022-10-15T05:56:48.398Z,11.85
2022-10-15T05:57:52.965Z,11.88
2022-10-15T05:58:54.792Z,11.94
2022-10-15T05:59:59.850Z,11.99
2022-10-15T06:01:02.434Z,12.04
2022-10-15T06:02:08.351Z,12.10
2022-10-15T06:03:12.163Z,12.14
2022-10-15T06:04:17.188Z,12.18
2022-10-15T06:05:19.075Z,12.23
2022-10-15T06:06:24.356Z,12.27
2022-10-15T06:07:26.860Z,12.31
2022-10-15T06:08:31.946Z,12.34
2022-10-15T06:09:36.450Z,12.38
2022-10-15T06:10:38.398Z,12.39
2022-10-15T06:11:42.935Z,12.42
2022-10-15T06:12:51.709Z,12.42
2022-10-15T06:13:56.137Z,12.44
2022-10-15T06:14:58.035Z,12.44
2022-10-15T06:16:02.637Z,12.45
2022-10-15T06:17:04.429Z,12.44
2022-10-15T06:18:08.867Z,12.43
2022-10-15T06:19:10.717Z,12.42
2022-10-15T06:20:15.715Z,12.42
2022-10-15T06:21:17.500Z,12.38
2022-10-15T06:22:21.949Z,12.36
2022-10-15T06:23:24.469Z,12.32
2022-10-15T06:24:28.925Z,12.27
2022-10-15T06:25:31.228Z,12.20
2022-10-15T06:26:35.612Z,12.14
2022-10-15T06:27:37.453Z,12.07
2022-10-15T06:28:42.430Z,12.01
2022-10-15T06:29:44.316Z,11.93
2022-10-15T06:30:48.734Z,11.87
2022-10-15T06:31:50.591Z,11.82
2022-10-15T06:32:55.816Z,11.79
2022-10-15T06:33:57.624Z,11.76
2022-10-15T06:35:02.025Z,11.75
2022-10-15T06:36:07.667Z,11.75
2022-10-15T06:37:12.127Z,11.75
2022-10-15T06:38:13.942Z,11.78
2022-10-15T06:39:18.582Z,11.82
2022-10-15T06:40:20.516Z,11.86
2022-10-15T06:41:25.911Z,11.90
2022-10-15T06:42:27.748Z,11.97
2022-10-15T06:43:35.234Z,12.00
2022-10-15T06:44:38.124Z,12.07
2022-10-15T06:45:43.525Z,12.12
2022-10-15T06:46:51.791Z,12.19
2022-10-15T06:47:56.293Z,12.23
2022-10-15T06:48:58.137Z,12.31
2022-10-15T06:50:02.775Z,12.37
2022-10-15T06:51:05.070Z,12.42
2022-10-15T06:52:09.815Z,12.48
2022-10-15T06:53:11.689Z,12.52
2022-10-15T06:54:16.393Z,12.56
2022-10-15T06:55:18.246Z,12.63
2022-10-15T06:56:22.731Z,12.71
2022-10-15T06:57:26.163Z,12.77
2022-10-15T06:58:30.865Z,12.83
2022-10-15T06:59:33.291Z,12.88
2022-10-15T07:00:39.379Z,12.94
2022-10-15T07:01:43.823Z,13.00
2022-10-15T07:02:45.887Z,13.05
2022-10-15T07:03:53.649Z,13.10
2022-10-15T07:04:55.459Z,13.15
2022-10-15T07:06:04.518Z,13.22
2022-10-15T07:07:06.442Z,13.21
2022-10-15T07:08:13.159Z,13.32
2022-10-15T07:09:17.245Z,13.40
2022-10-15T07:10:21.650Z,13.45
2022-10-15T07:11:23.542Z,13.52
2022-10-15T07:12:27.945Z,13.51
2022-10-15T07:13:30.041Z,13.65
2022-10-15T07:14:40.073Z,13.73
2022-10-15T07:15:46.413Z,13.81
2022-10-15T07:16:50.841Z,13.88
2022-10-15T07:17:53.486Z,13.93
2022-10-15T07:18:58.012Z,14.00
2022-10-15T07:19:59.856Z,14.04
2022-10-15T07:21:05.743Z,14.12
2022-10-15T07:22:08.160Z,14.15
2022-10-15T07:23:12.573Z,14.20
2022-10-15T07:24:14.430Z,14.24
2022-10-15T07:25:18.833Z,14.26
2022-10-15T07:26:21.403Z,14.31
2022-10-15T07:27:25.804Z,14.36
2022-10-15T07:28:29.030Z,14.41
2022-10-15T07:29:34.762Z,14.46
2022-10-15T07:30:36.730Z,14.51
2022-10-15T07:31:41.251Z,14.59
2022-10-15T07:32:45.601Z,14.67
2022-10-15T07:33:50.997Z,14.71
2022-10-15T07:34:53.441Z,14.76
2022-10-15T07:35:57.885Z,14.82
2022-10-15T07:36:59.688Z,14.87
2022-10-15T07:38:04.821Z,14.94
2022-10-15T07:39:06.669Z,15.02
2022-10-15T07:40:12.049Z,15.13
2022-10-15T07:41:14.199Z,15.25
2022-10-15T07:42:20.570Z,15.33
2022-10-15T07:43:22.446Z,15.37
2022-10-15T07:44:26.894Z,15.43
2022-10-15T07:45:28.855Z,15.48
2022-10-15T07:46:33.249Z,15.46
2022-10-15T07:47:35.067Z,15.58
2022-10-15T07:48:40.900Z,15.61
2022-10-15T07:49:42.641Z,15.63
2022-10-15T07:50:47.231Z,15.62
2022-10-15T07:51:49.037Z,15.56
2022-10-15T07:52:53.461Z,15.58
2022-10-15T07:53:55.674Z,15.66
2022-10-15T07:55:00.178Z,15.70
2022-10-15T07:56:03.021Z,15.73
2022-10-15T07:57:10.964Z,15.75
2022-10-15T07:58:13.146Z,15.75
2022-10-15T07:59:17.546Z,15.76
2022-10-15T08:00:19.448Z,15.79
2022-10-15T08:01:24.186Z,15.80
2022-10-15T08:02:26.390Z,15.81
2022-10-15T08:03:31.198Z,15.82
2022-10-15T08:04:35.119Z,15.86
2022-10-15T08:05:39.564Z,15.90
2022-10-15T08:06:43.986Z,15.95
2022-10-15T08:07:45.940Z,16.01
2022-10-15T08:08:50.580Z,16.05
2022-10-15T08:09:52.378Z,16.11
2022-10-15T08:10:57.381Z,16.18
2022-10-15T08:11:59.229Z,16.21
2022-10-15T08:13:03.709Z,16.27
2022-10-15T08:14:06.054Z,16.33
2022-10-15T08:15:10.722Z,16.36
2022-10-15T08:16:15.509Z,16.41
2022-10-15T08:17:20.993Z,16.47
2022-10-15T08:18:22.797Z,16.49
2022-10-15T08:19:27.265Z,16.59
2022-10-15T08:20:29.108Z,16.66
2022-10-15T08:21:33.496Z,16.75
2022-10-15T08:22:35.663Z,16.84
2022-10-15T08:23:40.547Z,16.91
2022-10-15T08:24:44.976Z,16.98
2022-10-15T08:25:46.784Z,17.07
2022-10-15T08:26:52.164Z,17.15
2022-10-15T08:27:54.210Z,17.22
2022-10-15T08:28:58.670Z,17.28
2022-10-15T08:30:00.533Z,17.35
2022-10-15T08:31:06.297Z,17.41
2022-10-15T08:32:08.250Z,17.47
2022-10-15T08:33:12.694Z,17.53
2022-10-15T08:34:14.498Z,17.59
2022-10-15T08:35:19.301Z,17.62
2022-10-15T08:36:21.244Z,17.63
2022-10-15T08:37:25.947Z,17.70
2022-10-15T08:38:27.850Z,17.76
2022-10-15T08:39:32.269Z,17.78
2022-10-15T08:40:34.086Z,17.80
2022-10-15T08:41:39.733Z,17.84
2022-10-15T08:42:42.395Z,17.83
2022-10-15T08:43:46.781Z,17.80
2022-10-15T08:44:51.993Z,17.80
2022-10-15T08:45:57.512Z,17.81
2022-10-15T08:47:03.386Z,17.81
2022-10-15T08:48:09.067Z,17.81
2022-10-15T08:49:14.803Z,17.82
2022-10-15T08:50:25.589Z,17.85
2022-10-15T08:51:28.997Z,17.90
2022-10-15T08:52:46.805Z,17.95
2022-10-15T08:53:55.522Z,18.04
2022-10-15T08:55:00.118Z,18.09
2022-10-15T08:56:04.304Z,18.12
2022-10-15T08:57:14.382Z,18.16
2022-10-15T08:58:25.554Z,18.20
2022-10-15T08:59:34.500Z,18.22
2022-10-15T09:00:38.689Z,18.24
2022-10-15T09:01:47.801Z,18.23
2022-10-15T09:02:55.353Z,18.25
2022-10-15T09:04:20.087Z,18.24
2022-10-15T09:05:27.469Z,18.25
2022-10-15T09:06:33.346Z,18.25
2022-10-15T09:07:36.325Z,18.28
2022-10-15T09:08:43.519Z,18.32
2022-10-15T09:09:49.403Z,18.37
2022-10-15T09:10:58.253Z,18.39
2022-10-15T09:12:07.265Z,18.41
2022-10-15T09:13:16.604Z,18.44
2022-10-15T09:14:22.735Z,18.50
2022-10-15T09:15:28.002Z,18.62
2022-10-15T09:16:30.786Z,18.83
2022-10-15T09:17:37.520Z,19.03
2022-10-15T09:18:40.160Z,19.24
2022-10-15T09:19:44.805Z,19.48
2022-10-15T09:20:46.650Z,19.63
2022-10-15T09:21:53.913Z,19.81
2022-10-15T09:22:55.776Z,19.96
2022-10-15T09:24:01.621Z,20.09
2022-10-15T09:25:07.848Z,20.25
2022-10-15T09:26:15.013Z,20.37
2022-10-15T09:27:26.265Z,20.51
2022-10-15T09:28:32.944Z,20.67
2022-10-15T09:29:37.673Z,20.78
2022-10-15T09:30:49.950Z,20.84
2022-10-15T09:32:10.794Z,20.86
2022-10-15T09:33:20.579Z,20.93
2022-10-15T09:34:30.174Z,21.01
2022-10-15T09:35:48.280Z,21.00
2022-10-15T09:36:51.840Z,21.02
2022-10-15T09:38:02.280Z,21.02
2022-10-15T09:39:28.958Z,20.99
2022-10-15T09:40:30.846Z,20.92
2022-10-15T09:41:39.485Z,20.88
2022-10-15T09:42:41.290Z,20.84
2022-10-15T09:43:49.964Z,20.84
2022-10-15T09:44:52.843Z,20.83
2022-10-15T09:45:57.423Z,20.85
2022-10-15T09:47:02.892Z,20.81
2022-10-15T09:48:09.412Z,20.77
2022-10-15T09:49:19.152Z,20.69
2022-10-15T09:50:30.155Z,20.62
2022-10-15T09:51:35.866Z,20.53
2022-10-15T09:52:58.977Z,20.48
2022-10-15T09:54:00.735Z,20.51
2022-10-15T09:55:11.175Z,20.57
2022-10-15T09:56:16.948Z,20.59
2022-10-15T09:57:21.345Z,20.64
2022-10-15T09:58:27.519Z,20.69
2022-10-15T10:01:07.191Z,20.88
2022-10-15T10:02:21.261Z,20.96
2022-10-15T10:03:24.442Z,21.06
2022-10-15T10:04:33.063Z,21.17
2022-10-15T10:05:36.324Z,21.30
2022-10-15T10:06:53.921Z,21.44
2022-10-15T10:08:16.542Z,21.60
2022-10-15T10:09:22.515Z,21.70
2022-10-15T10:10:30.642Z,21.73
2022-10-15T10:11:48.412Z,21.72
2022-10-15T10:12:50.296Z,21.67
2022-10-15T10:13:56.793Z,21.64
2022-10-15T10:15:21.428Z,21.59
2022-10-15T10:16:25.974Z,21.52
2022-10-15T10:17:32.868Z,21.45
2022-10-15T10:18:37.761Z,21.39
2022-10-15T10:19:39.626Z,21.30
2022-10-15T10:20:44.734Z,21.22
2022-10-15T10:21:49.117Z,21.10
2022-10-15T10:22:54.498Z,21.08
2022-10-15T10:23:59.018Z,21.02
2022-10-15T10:25:00.855Z,20.95
2022-10-15T10:26:06.361Z,20.92
2022-10-15T10:27:18.736Z,20.87
2022-10-15T10:28:30.140Z,20.84
2022-10-15T10:29:34.473Z,20.83
2022-10-15T10:30:39.964Z,20.82
2022-10-15T10:31:43.893Z,20.78
2022-10-15T10:33:03.554Z,20.74
2022-10-15T10:34:07.938Z,20.70
2022-10-15T10:35:16.729Z,20.66
2022-10-15T10:36:24.988Z,20.62
2022-10-15T10:37:27.225Z,20.61
2022-10-15T10:38:33.148Z,20.58
2022-10-15T10:39:36.417Z,20.56
2022-10-15T10:40:41.015Z,20.53
2022-10-15T10:41:50.276Z,20.49
2022-10-15T10:43:05.208Z,20.52
2022-10-15T10:44:09.154Z,20.54
2022-10-15T10:45:23.943Z,20.46
2022-10-15T10:46:25.765Z,20.52
2022-10-15T10:47:30.158Z,20.53
2022-10-15T10:48:44.388Z,20.51
2022-10-15T10:49:47.393Z,20.52
2022-10-15T10:50:51.810Z,20.51
2022-10-15T10:51:53.721Z,20.52
2022-10-15T10:53:00.229Z,20.52
2022-10-15T10:54:06.118Z,20.48
2022-10-15T10:55:12.522Z,20.54
2022-10-15T10:56:17.253Z,20.56
2022-10-15T10:57:19.474Z,20.58
2022-10-15T10:58:27.259Z,20.58
2022-10-15T10:59:31.438Z,20.56
2022-10-15T11:00:38.682Z,20.57
2022-10-15T11:01:43.197Z,20.53
2022-10-15T11:02:45.310Z,20.49
2022-10-15T11:03:50.572Z,20.45
2022-10-15T11:04:52.414Z,20.42
2022-10-15T11:05:58.879Z,20.34
2022-10-15T11:07:07.282Z,20.30
2022-10-15T11:08:50.476Z,20.25
2022-10-15T11:09:55.389Z,20.16
2022-10-15T11:11:08.099Z,20.10
2022-10-15T11:12:28.583Z,20.07
2022-10-15T11:13:32.944Z,20.01
2022-10-15T11:15:09.813Z,19.98
2022-10-15T11:16:11.646Z,19.98
2022-10-15T11:17:16.019Z,19.96
2022-10-15T11:18:20.605Z,19.95
2022-10-15T11:20:12.936Z,19.97
2022-10-15T11:21:17.945Z,20.00
2022-10-15T11:22:42.087Z,20.04
2022-10-15T11:23:55.621Z,20.08
2022-10-15T11:25:18.401Z,20.11
2022-10-15T11:26:21.951Z,20.15
2022-10-15T11:27:29.341Z,20.19
2022-10-15T11:28:49.137Z,20.24
2022-10-15T11:29:55.979Z,20.32
2022-10-15T11:31:06.129Z,20.41
2022-10-15T11:32:15.159Z,20.46
2022-10-15T11:33:24.365Z,20.56
2022-10-15T11:34:26.142Z,20.63
2022-10-15T11:35:51.503Z,20.68
2022-10-15T11:37:15.068Z,20.73
2022-10-15T11:38:19.639Z,20.82
2022-10-15T11:39:46.389Z,20.89
2022-10-15T11:40:59.485Z,21.00
2022-10-15T11:42:07.585Z,21.11
2022-10-15T11:43:15.076Z,21.20
2022-10-15T11:44:22.909Z,21.29
2022-10-15T11:45:33.358Z,21.39
2022-10-15T11:46:35.144Z,21.48
2022-10-15T11:47:39.811Z,21.52
2022-10-15T11:49:06.289Z,21.59
2022-10-15T11:50:29.356Z,21.70
2022-10-15T11:51:31.222Z,21.80
2022-10-15T11:52:54.606Z,21.89
2022-10-15T11:54:17.586Z,21.96
2022-10-15T11:55:20.262Z,22.04
2022-10-15T11:56:38.075Z,22.06
2022-10-15T11:57:40.859Z,22.10
2022-10-15T11:58:49.311Z,22.13
2022-10-15T11:59:51.163Z,22.12
2022-10-15T12:00:56.780Z,22.13
2022-10-15T12:02:00.951Z,22.11
2022-10-15T12:03:08.496Z,22.07
2022-10-15T12:04:23.361Z,22.09
2022-10-15T12:05:31.295Z,22.08
2022-10-15T12:06:37.889Z,22.10
2022-10-15T12:07:41.326Z,22.11
2022-10-15T12:08:46.804Z,22.11
2022-10-15T12:09:49.851Z,22.16
2022-10-15T12:10:54.338Z,22.15
2022-10-15T12:12:02.096Z,22.07
2022-10-15T12:13:11.829Z,22.09
2022-10-15T12:14:18.216Z,22.10
2022-10-15T12:15:24.006Z,22.03
2022-10-15T12:16:33.360Z,21.96
2022-10-15T12:17:43.023Z,21.90
2022-10-15T12:18:47.424Z,21.81
2022-10-15T12:19:54.524Z,21.80
2022-10-15T12:20:58.623Z,21.80
2022-10-15T12:22:11.330Z,21.84
2022-10-15T12:23:29.255Z,21.81
2022-10-15T12:24:44.786Z,21.82
2022-10-15T12:25:49.450Z,21.86
2022-10-15T12:26:51.255Z,21.93
2022-10-15T12:28:02.657Z,22.01
2022-10-15T12:29:05.785Z,22.09
2022-10-15T12:30:11.804Z,22.16
2022-10-15T12:31:20.328Z,22.25
2022-10-15T12:32:23.240Z,22.34
2022-10-15T12:33:29.139Z,22.43
2022-10-15T12:34:33.586Z,22.50
2022-10-15T12:35:41.856Z,22.52
2022-10-15T12:36:43.669Z,22.57
2022-10-15T12:37:49.611Z,22.60
2022-10-15T12:39:11.594Z,22.60
2022-10-15T12:40:23.471Z,22.61
2022-10-15T12:41:38.239Z,22.59
2022-10-15T12:42:40.127Z,22.58
2022-10-15T12:43:48.969Z,22.57
2022-10-15T12:44:50.806Z,22.56
2022-10-15T12:45:56.271Z,22.52
2022-10-15T12:46:58.709Z,22.47
2022-10-15T12:48:08.861Z,22.42
2022-10-15T12:49:36.207Z,22.36
2022-10-15T12:50:38.179Z,22.28
2022-10-15T12:51:43.069Z,22.23
2022-10-15T12:52:55.609Z,22.16
2022-10-15T12:54:00.979Z,22.03
2022-10-15T12:55:21.645Z,21.95
2022-10-15T12:56:27.834Z,21.82
2022-10-15T12:57:33.095Z,21.75
2022-10-15T12:58:37.724Z,21.66
2022-10-15T12:59:45.566Z,21.58
2022-10-15T13:00:50.042Z,21.51
2022-10-15T13:01:52.314Z,21.43
2022-10-15T13:02:59.367Z,21.34
2022-10-15T13:04:03.849Z,21.24
2022-10-15T13:05:06.235Z,21.17
2022-10-15T13:06:22.878Z,21.02
2022-10-15T13:07:27.387Z,20.90
2022-10-15T13:08:31.906Z,20.85
2022-10-15T13:09:36.438Z,20.78
2022-10-15T13:10:45.630Z,20.71
2022-10-15T13:12:54.389Z,20.62
2022-10-15T13:14:02.017Z,20.52
2022-10-15T13:15:04.398Z,20.46
2022-10-15T13:16:09.972Z,20.39
2022-10-15T13:17:18.605Z,20.33
2022-10-15T13:18:20.431Z,20.32
2022-10-15T13:19:45.191Z,20.30
2022-10-15T13:20:49.183Z,20.27
2022-10-15T13:21:54.821Z,20.26
2022-10-15T13:23:29.700Z,20.21
2022-10-15T13:24:45.733Z,20.17
2022-10-15T13:25:50.524Z,20.11
2022-10-15T13:26:56.567Z,20.11
2022-10-15T13:28:01.077Z,20.06
2022-10-15T13:29:03.019Z,20.02
2022-10-15T13:30:08.711Z,19.99
2022-10-15T13:31:16.471Z,19.98
2022-10-15T13:32:20.907Z,19.93
2022-10-15T13:33:22.747Z,19.91
2022-10-15T13:34:34.316Z,19.90
2022-10-15T13:35:37.538Z,19.85
2022-10-15T13:36:41.941Z,19.85
2022-10-15T13:37:43.965Z,19.82
2022-10-15T13:38:51.916Z,19.82
2022-10-15T13:39:53.798Z,19.77
2022-10-15T13:40:58.178Z,19.76
2022-10-15T13:42:08.891Z,19.76
2022-10-15T13:43:20.549Z,19.73
2022-10-15T13:44:22.973Z,19.73
2022-10-15T13:45:27.353Z,19.73
2022-10-15T13:46:41.517Z,19.72
2022-10-15T13:47:47.393Z,19.73
2022-10-15T13:48:51.784Z,19.74
2022-10-15T13:50:12.599Z,19.74
2022-10-15T13:51:17.020Z,19.78
2022-10-15T13:52:18.947Z,19.81
2022-10-15T13:53:29.406Z,19.79
2022-10-15T13:54:31.605Z,19.78
2022-10-15T13:55:37.016Z,19.75
2022-10-15T13:56:45.255Z,19.74
2022-10-15T13:57:52.359Z,19.74
2022-10-15T13:58:54.304Z,19.76
2022-10-15T13:59:58.735Z,19.77
2022-10-15T14:01:09.565Z,19.78
2022-10-15T14:02:14.568Z,19.83
2022-10-15T14:03:16.407Z,19.86
2022-10-15T14:04:21.822Z,19.90
2022-10-15T14:05:24.166Z,19.93
2022-10-15T14:06:34.539Z,19.94
2022-10-15T14:07:36.336Z,19.95
2022-10-15T14:08:40.717Z,19.95
2022-10-15T14:09:42.556Z,19.95
2022-10-15T14:10:47.127Z,19.94
2022-10-15T14:11:51.515Z,19.91
2022-10-15T14:12:53.403Z,19.91
2022-10-15T14:13:58.927Z,19.88
2022-10-15T14:15:20.730Z,19.86
2022-10-15T14:16:28.173Z,19.83
2022-10-15T14:17:30.024Z,19.81
2022-10-15T14:18:39.340Z,19.77
2022-10-15T14:19:44.018Z,19.73
2022-10-15T14:20:46.688Z,19.71
2022-10-15T14:21:52.494Z,19.68
2022-10-15T14:22:54.304Z,19.67
2022-10-15T14:24:17.937Z,19.65
2022-10-15T14:25:23.146Z,19.61
2022-10-15T14:26:27.578Z,19.60
2022-10-15T14:27:32.048Z,19.59
2022-10-15T14:28:34.446Z,19.57
2022-10-15T14:29:42.604Z,19.55
2022-10-15T14:30:44.589Z,19.55